Time;durP1;ratioP1;P1;durP2;ratioP2;P2;SDS_P1;SDS_P2;PMS_P1;PMS_P2;Temp;Humidity;BMP_temperature;BMP_pressure;BME280_temperature;BME280_humidity;BME280_pressure;Samples;Min_cycle;Max_cycle;Signal;HPM_P1;HPM_P2
2022/12/01 00:01:27;;;;;;;52.42;22.08;;;;;;;;;;5061958;28;20085;-81
2022/12/01 00:03:54;;;;;;;45.45;20.80;;;;;;;;;;5061634;28;20109;-80
2022/12/01 00:06:22;;;;;;;46.92;20.55;;;;;;;;;;5061869;28;20053;-81
2022/12/01 00:11:43;;;;;;;45.78;20.58;;;;;;;;;;5061112;28;20097;-81
2022/12/01 00:14:10;;;;;;;50.95;22.13;;;;;;;;;;5062933;28;20053;-81
2022/12/01 00:16:39;;;;;;;52.15;21.45;;;;;;;;;;5062845;28;20136;-81
2022/12/01 00:19:10;;;;;;;42.75;19.80;;;;;;;;;;5063478;28;20124;-82
2022/12/01 00:21:37;;;;;;;43.38;20.80;;;;;;;;;;5060094;28;20049;-81
2022/12/01 00:24:05;;;;;;;45.00;20.15;;;;;;;;;;5058445;28;20049;-81
2022/12/01 00:26:32;;;;;;;55.38;21.20;;;;;;;;;;5064501;28;20052;-81
2022/12/01 00:28:59;;;;;;;54.50;21.92;;;;;;;;;;5061718;28;20156;-81
2022/12/01 00:31:27;;;;;;;51.72;20.98;;;;;;;;;;5066693;28;20034;-81
2022/12/01 00:33:55;;;;;;;48.17;20.70;;;;;;;;;;5069947;28;20049;-81
2022/12/01 00:36:23;;;;;;;45.92;20.10;;;;;;;;;;5078679;28;20047;-81
2022/12/01 00:38:54;;;;;;;48.95;20.70;;;;;;;;;;5066681;28;20042;-81
2022/12/01 00:41:22;;;;;;;47.70;20.15;;;;;;;;;;5062002;28;20041;-81
2022/12/01 00:43:51;;;;;;;47.55;21.60;;;;;;;;;;5066197;28;20056;-82
2022/12/01 00:46:19;;;;;;;45.63;20.42;;;;;;;;;;5062537;28;20049;-82
2022/12/01 00:48:46;;;;;;;51.53;22.10;;;;;;;;;;5067933;28;20822;-81
2022/12/01 00:51:17;;;;;;;50.10;21.88;;;;;;;;;;5062772;28;20926;-81
2022/12/01 00:53:44;;;;;;;50.45;20.95;;;;;;;;;;5063673;28;20060;-81
2022/12/01 00:56:12;;;;;;;49.53;20.83;;;;;;;;;;5061644;28;20083;-81
2022/12/01 00:58:39;;;;;;;50.75;20.85;;;;;;;;;;5058358;28;20046;-81
2022/12/01 01:01:06;;;;;;;50.45;21.85;;;;;;;;;;5057696;28;20053;-82
2022/12/01 01:03:35;;;;;;;51.70;21.75;;;;;;;;;;5059859;28;20050;-81
2022/12/01 01:06:06;;;;;;;48.88;20.92;;;;;;;;;;5060762;28;20053;-81
2022/12/01 01:08:36;;;;;;;43.70;20.48;;;;;;;;;;5079475;28;20049;-81
2022/12/01 01:11:06;;;;;;;50.63;21.27;;;;;;;;;;5058812;28;20045;-82
2022/12/01 01:13:35;;;;;;;47.47;19.92;;;;;;;;;;5058005;28;20069;-81
2022/12/01 01:16:05;;;;;;;47.35;21.10;;;;;;;;;;5063827;28;20061;-81
2022/12/01 01:18:32;;;;;;;50.28;20.73;;;;;;;;;;5072250;28;20109;-82
2022/12/01 01:21:02;;;;;;;45.50;19.58;;;;;;;;;;5063941;28;20046;-81
2022/12/01 01:23:29;;;;;;;43.95;20.48;;;;;;;;;;5062679;28;20084;-81
2022/12/01 01:26:10;;;;;;;42.95;19.15;;;;;;;;;;5065303;28;20500;-81
2022/12/01 01:28:41;;;;;;;46.13;19.52;;;;;;;;;;5056247;28;20056;-81
2022/12/01 01:31:10;;;;;;;48.33;19.65;;;;;;;;;;5052440;28;20060;-81
2022/12/01 01:33:40;;;;;;;43.63;19.13;;;;;;;;;;5060538;28;20141;-81
2022/12/01 01:36:08;;;;;;;47.72;19.30;;;;;;;;;;5060907;28;20110;-81
2022/12/01 01:38:41;;;;;;;43.63;19.23;;;;;;;;;;5074283;28;20055;-81
2022/12/01 01:41:12;;;;;;;40.72;18.85;;;;;;;;;;5064901;28;20053;-81
2022/12/01 01:43:39;;;;;;;44.85;18.75;;;;;;;;;;5058527;28;20057;-81
2022/12/01 01:46:09;;;;;;;45.72;18.70;;;;;;;;;;5061102;28;20055;-81
2022/12/01 01:48:42;;;;;;;45.63;18.88;;;;;;;;;;5068201;28;20112;-81
2022/12/01 01:51:09;;;;;;;44.00;19.20;;;;;;;;;;5069855;28;20049;-80
2022/12/01 01:53:37;;;;;;;45.70;20.10;;;;;;;;;;5061136;28;20119;-81
2022/12/01 01:56:06;;;;;;;46.67;19.63;;;;;;;;;;5057998;28;20045;-81
2022/12/01 01:58:46;;;;;;;44.05;19.60;;;;;;;;;;5055192;28;20042;-82
2022/12/01 02:01:17;;;;;;;48.42;18.95;;;;;;;;;;5054413;28;20779;-81
2022/12/01 02:03:45;;;;;;;44.25;19.00;;;;;;;;;;5058855;28;20883;-81
2022/12/01 02:06:12;;;;;;;44.53;19.52;;;;;;;;;;5060722;28;20060;-81
2022/12/01 02:08:39;;;;;;;45.90;19.52;;;;;;;;;;5062184;28;20046;-82
2022/12/01 02:11:10;;;;;;;46.80;19.00;;;;;;;;;;5063658;28;20059;-81
2022/12/01 02:13:46;;;;;;;47.70;19.40;;;;;;;;;;5065284;28;20047;-81
2022/12/01 02:16:33;;;;;;;46.83;19.52;;;;;;;;;;5051337;28;20048;-81
2022/12/01 02:19:00;;;;;;;51.47;20.00;;;;;;;;;;5067138;28;20059;-81
2022/12/01 02:21:46;;;;;;;51.25;20.45;;;;;;;;;;5064146;28;20093;-81
2022/12/01 02:24:14;;;;;;;52.10;20.13;;;;;;;;;;5058472;28;20077;-81
2022/12/01 02:26:51;;;;;;;47.83;19.95;;;;;;;;;;5059018;28;21535;-81
2022/12/01 02:29:40;;;;;;;45.80;19.13;;;;;;;;;;5064054;28;20053;-81
2022/12/01 02:32:31;;;;;;;55.70;21.33;;;;;;;;;;5056513;28;20058;-81
2022/12/01 02:35:00;;;;;;;49.70;19.58;;;;;;;;;;4980706;28;20059;-81
2022/12/01 02:37:45;;;;;;;52.65;19.55;;;;;;;;;;4982227;28;20395;-82
2022/12/01 02:40:33;;;;;;;49.97;20.30;;;;;;;;;;4982557;28;20050;-81
2022/12/01 02:43:05;;;;;;;49.83;20.42;;;;;;;;;;4967127;28;20055;-81
2022/12/01 02:45:32;;;;;;;48.33;19.92;;;;;;;;;;4963408;28;20047;-81
2022/12/01 02:48:02;;;;;;;52.88;20.75;;;;;;;;;;4986921;28;20047;-81
2022/12/01 02:50:32;;;;;;;48.47;19.65;;;;;;;;;;4981932;28;20036;-82
2022/12/01 02:53:00;;;;;;;50.17;19.50;;;;;;;;;;4987072;28;20117;-81
2022/12/01 02:55:28;;;;;;;54.30;21.02;;;;;;;;;;4985960;28;20047;-81
2022/12/01 02:57:55;;;;;;;45.55;19.42;;;;;;;;;;4977275;28;20051;-82
2022/12/01 03:00:22;;;;;;;55.88;20.10;;;;;;;;;;4984090;28;20141;-81
2022/12/01 03:03:09;;;;;;;52.38;19.70;;;;;;;;;;4977522;28;20046;-81
2022/12/01 03:05:52;;;;;;;49.67;20.70;;;;;;;;;;4965911;28;21428;-81
2022/12/01 03:08:38;;;;;;;52.00;19.73;;;;;;;;;;4983943;28;20054;-81
2022/12/01 03:11:25;;;;;;;52.70;20.23;;;;;;;;;;4989801;28;20054;-81
2022/12/01 03:13:53;;;;;;;49.28;19.70;;;;;;;;;;5058044;28;20044;-81
2022/12/01 03:16:27;;;;;;;46.75;19.85;;;;;;;;;;5057787;28;20044;-81
2022/12/01 03:18:56;;;;;;;52.38;20.10;;;;;;;;;;5064518;28;20172;-81
2022/12/01 03:21:24;;;;;;;49.70;20.23;;;;;;;;;;5061096;28;20115;-81
2022/12/01 03:23:54;;;;;;;54.10;20.50;;;;;;;;;;5054809;28;20050;-82
2022/12/01 03:26:25;;;;;;;50.35;21.63;;;;;;;;;;5064521;28;20049;-82
2022/12/01 03:28:55;;;;;;;48.60;19.67;;;;;;;;;;5054231;28;20046;-82
2022/12/01 03:31:25;;;;;;;53.22;20.65;;;;;;;;;;5062534;28;20042;-81
2022/12/01 03:34:00;;;;;;;49.60;20.65;;;;;;;;;;5058542;28;20050;-81
2022/12/01 03:36:36;;;;;;;43.53;20.13;;;;;;;;;;5057469;28;20592;-81
2022/12/01 03:39:06;;;;;;;46.47;19.77;;;;;;;;;;5067305;28;20056;-80
2022/12/01 03:41:40;;;;;;;51.60;19.25;;;;;;;;;;5064834;28;20057;-81
2022/12/01 03:44:09;;;;;;;52.70;21.17;;;;;;;;;;5055418;28;20105;-81
2022/12/01 03:46:55;;;;;;;46.33;19.70;;;;;;;;;;5064154;28;20057;-81
2022/12/01 03:49:24;;;;;;;49.00;20.23;;;;;;;;;;5072795;28;20189;-81
2022/12/01 03:51:58;;;;;;;45.17;19.13;;;;;;;;;;5075406;28;20085;-82
2022/12/01 03:54:33;;;;;;;50.58;18.67;;;;;;;;;;5065653;28;20065;-82
2022/12/01 03:57:03;;;;;;;50.33;19.90;;;;;;;;;;5055009;28;20060;-81
2022/12/01 03:59:34;;;;;;;46.38;19.42;;;;;;;;;;5064086;28;20088;-81
2022/12/01 04:02:01;;;;;;;42.50;17.98;;;;;;;;;;5064029;28;20044;-80
2022/12/01 04:04:29;;;;;;;49.80;19.98;;;;;;;;;;5061383;28;20168;-81
2022/12/01 04:06:56;;;;;;;57.15;20.35;;;;;;;;;;5056317;28;20049;-81
2022/12/01 04:09:23;;;;;;;47.90;19.67;;;;;;;;;;5069129;28;20038;-82
2022/12/01 04:14:40;;;;;;;47.17;18.77;;;;;;;;;;5056466;28;20072;-81
2022/12/01 04:17:10;;;;;;;49.25;18.55;;;;;;;;;;5067206;28;20053;-81
2022/12/01 04:19:38;;;;;;;48.22;18.20;;;;;;;;;;5063505;28;20081;-81
2022/12/01 04:22:05;;;;;;;46.83;19.40;;;;;;;;;;5068205;28;20049;-81
2022/12/01 04:24:32;;;;;;;47.03;18.33;;;;;;;;;;5063575;28;20045;-81
2022/12/01 04:26:59;;;;;;;42.50;18.08;;;;;;;;;;5058436;28;20050;-81
2022/12/01 04:29:26;;;;;;;48.83;18.80;;;;;;;;;;5063088;28;21781;-81
2022/12/01 04:31:53;;;;;;;43.33;19.88;;;;;;;;;;5065114;28;20037;-82
2022/12/01 04:34:21;;;;;;;45.65;18.52;;;;;;;;;;5067577;28;20068;-81
2022/12/01 04:36:48;;;;;;;40.72;19.05;;;;;;;;;;5060885;28;20044;-81
2022/12/01 04:39:16;;;;;;;44.22;18.33;;;;;;;;;;5063383;28;20089;-81
2022/12/01 04:41:43;;;;;;;46.55;19.20;;;;;;;;;;5060082;28;20054;-81
2022/12/01 04:44:11;;;;;;;49.20;19.50;;;;;;;;;;5060866;28;20108;-81
2022/12/01 04:46:41;;;;;;;48.15;19.02;;;;;;;;;;5063962;28;20053;-81
2022/12/01 04:49:09;;;;;;;52.25;19.33;;;;;;;;;;5060782;28;20042;-81
2022/12/01 04:51:36;;;;;;;46.63;19.00;;;;;;;;;;5070807;28;20057;-81
2022/12/01 04:54:06;;;;;;;49.13;19.23;;;;;;;;;;5066417;28;20032;-81
2022/12/01 04:56:33;;;;;;;45.90;19.33;;;;;;;;;;5058802;28;20084;-81
2022/12/01 04:59:00;;;;;;;50.85;19.27;;;;;;;;;;5065191;28;20050;-81
2022/12/01 05:01:27;;;;;;;43.40;18.55;;;;;;;;;;5061013;28;20084;-83
2022/12/01 05:03:55;;;;;;;49.28;18.85;;;;;;;;;;5063838;28;20103;-81
2022/12/01 05:06:23;;;;;;;51.03;20.35;;;;;;;;;;5068882;28;20045;-81
2022/12/01 05:08:56;;;;;;;51.35;19.15;;;;;;;;;;5063461;28;20049;-81
2022/12/01 05:11:24;;;;;;;51.07;19.97;;;;;;;;;;5062842;28;20925;-81
2022/12/01 05:13:51;;;;;;;43.40;19.85;;;;;;;;;;5059475;28;20037;-81
2022/12/01 05:16:20;;;;;;;48.55;19.23;;;;;;;;;;5060538;28;20080;-81
2022/12/01 05:21:44;;;;;;;47.95;20.40;;;;;;;;;;5060120;28;20034;-81
2022/12/01 05:24:12;;;;;;;45.28;18.35;;;;;;;;;;5055754;28;20038;-82
2022/12/01 05:26:40;;;;;;;52.42;20.38;;;;;;;;;;5070062;28;21053;-81
2022/12/01 05:29:11;;;;;;;47.13;19.90;;;;;;;;;;5057895;28;20526;-81
2022/12/01 05:31:39;;;;;;;51.85;20.20;;;;;;;;;;5055079;28;20049;-82
2022/12/01 05:34:10;;;;;;;51.83;19.67;;;;;;;;;;5079913;28;20136;-81
2022/12/01 05:36:37;;;;;;;41.00;17.65;;;;;;;;;;5057238;28;20049;-81
2022/12/01 05:39:05;;;;;;;50.17;19.40;;;;;;;;;;5075559;28;20049;-81
2022/12/01 05:41:32;;;;;;;48.30;19.33;;;;;;;;;;5062162;28;20046;-81
2022/12/01 05:43:59;;;;;;;47.35;20.08;;;;;;;;;;5059832;28;20037;-81
2022/12/01 05:46:27;;;;;;;51.42;19.25;;;;;;;;;;5053990;28;20053;-81
2022/12/01 05:48:56;;;;;;;51.67;19.95;;;;;;;;;;5060727;28;20051;-82
2022/12/01 05:51:30;;;;;;;50.58;20.00;;;;;;;;;;5065513;28;20517;-81
2022/12/01 05:54:10;;;;;;;53.78;22.00;;;;;;;;;;5078836;28;20033;-81
2022/12/01 05:56:37;;;;;;;58.78;20.65;;;;;;;;;;5077947;28;20662;-82
2022/12/01 05:59:04;;;;;;;57.35;20.20;;;;;;;;;;5064883;28;20045;-82
2022/12/01 06:01:31;;;;;;;52.60;20.58;;;;;;;;;;5061155;28;20038;-81
2022/12/01 06:03:59;;;;;;;52.75;20.27;;;;;;;;;;5062463;28;20045;-81
2022/12/01 06:06:27;;;;;;;47.72;19.45;;;;;;;;;;5058231;28;20140;-81
2022/12/01 06:08:54;;;;;;;58.45;19.33;;;;;;;;;;5053232;28;20056;-81
2022/12/01 06:11:22;;;;;;;58.70;21.25;;;;;;;;;;5055247;28;20053;-82
2022/12/01 06:13:52;;;;;;;53.45;20.20;;;;;;;;;;5059600;28;20054;-81
2022/12/01 06:16:25;;;;;;;48.72;18.67;;;;;;;;;;5067508;28;20076;-82
2022/12/01 06:18:53;;;;;;;47.13;19.70;;;;;;;;;;5053177;28;20053;-81
2022/12/01 06:21:20;;;;;;;51.78;17.90;;;;;;;;;;5055031;28;20924;-82
2022/12/01 06:23:48;;;;;;;55.15;19.23;;;;;;;;;;5054784;28;20064;-81
2022/12/01 06:26:15;;;;;;;55.83;19.88;;;;;;;;;;5061433;28;20051;-81
2022/12/01 06:28:43;;;;;;;48.50;19.27;;;;;;;;;;5062442;28;20049;-81
2022/12/01 06:31:12;;;;;;;52.45;19.20;;;;;;;;;;5074555;28;20045;-81
2022/12/01 06:33:40;;;;;;;51.35;19.67;;;;;;;;;;5058494;28;20061;-81
2022/12/01 06:36:10;;;;;;;49.00;18.63;;;;;;;;;;5059678;28;20041;-82
2022/12/01 06:38:39;;;;;;;57.17;20.42;;;;;;;;;;5061149;28;20058;-81
2022/12/01 06:41:11;;;;;;;61.88;21.33;;;;;;;;;;5056844;28;20169;-81
2022/12/01 06:43:41;;;;;;;60.30;21.45;;;;;;;;;;5061201;28;20049;-81
2022/12/01 06:46:12;;;;;;;56.53;19.48;;;;;;;;;;5059148;28;20049;-81
2022/12/01 06:48:40;;;;;;;63.00;20.88;;;;;;;;;;5056772;28;20059;-82
2022/12/01 06:51:09;;;;;;;62.13;20.55;;;;;;;;;;5055180;28;20042;-82
2022/12/01 06:53:40;;;;;;;54.45;19.20;;;;;;;;;;5058015;28;20054;-82
2022/12/01 06:56:11;;;;;;;56.33;19.35;;;;;;;;;;5059957;28;20069;-82
2022/12/01 06:58:42;;;;;;;62.15;20.88;;;;;;;;;;5054390;28;20087;-82
2022/12/01 07:01:11;;;;;;;61.08;20.02;;;;;;;;;;5051807;28;20052;-82
2022/12/01 07:03:41;;;;;;;59.10;19.23;;;;;;;;;;5055677;28;20038;-81
2022/12/01 07:06:09;;;;;;;59.75;19.38;;;;;;;;;;5063269;28;20045;-82
2022/12/01 07:08:45;;;;;;;71.47;21.63;;;;;;;;;;5054161;28;20073;-82
2022/12/01 07:11:13;;;;;;;61.38;19.85;;;;;;;;;;5074289;28;20946;-81
2022/12/01 07:13:48;;;;;;;72.32;21.30;;;;;;;;;;5071744;28;20053;-81
2022/12/01 07:16:45;;;;;;;61.53;20.40;;;;;;;;;;5057896;28;20042;-82
2022/12/01 07:19:15;;;;;;;60.75;19.30;;;;;;;;;;5066818;28;20060;-82
2022/12/01 07:21:43;;;;;;;68.50;20.23;;;;;;;;;;5051696;28;20046;-82
2022/12/01 07:24:13;;;;;;;61.13;21.30;;;;;;;;;;5056581;28;20050;-82
2022/12/01 07:26:42;;;;;;;62.47;21.27;;;;;;;;;;5055556;28;20057;-80
2022/12/01 07:29:10;;;;;;;70.25;20.25;;;;;;;;;;5057579;28;20048;-80
2022/12/01 07:31:38;;;;;;;64.43;20.58;;;;;;;;;;5054922;28;20118;-80
2022/12/01 07:34:10;;;;;;;70.57;22.77;;;;;;;;;;5061102;28;20128;-83
2022/12/01 07:36:37;;;;;;;81.50;22.05;;;;;;;;;;5054869;28;20404;-81
2022/12/01 07:39:13;;;;;;;67.72;22.60;;;;;;;;;;5051953;28;20504;-82
2022/12/01 07:41:43;;;;;;;72.25;22.35;;;;;;;;;;5050659;28;20145;-82
2022/12/01 07:44:17;;;;;;;63.25;20.83;;;;;;;;;;5055625;28;20042;-82
2022/12/01 07:46:44;;;;;;;62.80;20.80;;;;;;;;;;5053127;28;20054;-81
2022/12/01 07:49:14;;;;;;;68.43;22.00;;;;;;;;;;5054908;28;20056;-82
2022/12/01 07:51:44;;;;;;;68.63;22.70;;;;;;;;;;5060017;28;20052;-81
2022/12/01 07:54:29;;;;;;;80.70;23.40;;;;;;;;;;5052795;28;20037;-81
2022/12/01 07:57:19;;;;;;;76.95;22.20;;;;;;;;;;5051864;28;20161;-82
2022/12/01 07:59:52;;;;;;;77.80;22.48;;;;;;;;;;5063814;28;20049;-83
2022/12/01 08:02:21;;;;;;;81.45;24.15;;;;;;;;;;5060606;28;20045;-82
2022/12/01 08:04:51;;;;;;;87.55;24.05;;;;;;;;;;5056355;28;20846;-82
2022/12/01 08:07:32;;;;;;;;;;;;;;;;;;5059561;28;20101;-82
2022/12/01 08:10:00;;;;;;;79.35;22.38;;;;;;;;;;5052605;28;42096;-82
2022/12/01 08:12:41;;;;;;;79.82;23.70;;;;;;;;;;5045183;28;20053;-82
2022/12/01 08:15:09;;;;;;;82.78;24.48;;;;;;;;;;5078866;28;20056;-82
2022/12/01 08:18:01;;;;;;;83.22;24.10;;;;;;;;;;5063637;28;20080;-82
2022/12/01 08:20:32;;;;;;;75.25;22.92;;;;;;;;;;5052236;28;20054;-82
2022/12/01 08:23:03;;;;;;;76.15;23.90;;;;;;;;;;5063769;28;20048;-81
2022/12/01 08:25:33;;;;;;;78.00;23.48;;;;;;;;;;5055206;28;20148;-82
2022/12/01 08:28:05;;;;;;;82.95;26.00;;;;;;;;;;5071004;28;20049;-82
2022/12/01 08:30:32;;;;;;;70.45;23.67;;;;;;;;;;5076168;28;20053;-82
2022/12/01 08:33:00;;;;;;;86.53;24.80;;;;;;;;;;5055722;28;20056;-82
2022/12/01 08:35:37;;;;;;;75.60;24.75;;;;;;;;;;5058968;28;20144;-82
2022/12/01 08:38:05;;;;;;;;;;;;;;;;;;5054251;28;20052;-82
2022/12/01 08:40:38;;;;;;;79.88;23.30;;;;;;;;;;5073345;28;44108;-82
2022/12/01 08:43:10;;;;;;;71.90;24.40;;;;;;;;;;5054482;28;20046;-82
2022/12/01 08:46:00;;;;;;;78.25;24.98;;;;;;;;;;5059776;28;20060;-82
2022/12/01 08:48:30;;;;;;;71.03;25.08;;;;;;;;;;5074952;28;20057;-82
2022/12/01 08:51:07;;;;;;;81.82;26.33;;;;;;;;;;5059127;28;20042;-82
2022/12/01 08:53:39;;;;;;;69.97;23.02;;;;;;;;;;5078420;28;20101;-82
2022/12/01 08:56:23;;;;;;;70.50;24.70;;;;;;;;;;5059258;28;20041;-82
2022/12/01 08:58:50;;;;;;;79.05;25.25;;;;;;;;;;5063069;28;20045;-81
2022/12/01 09:01:18;;;;;;;72.15;24.20;;;;;;;;;;5076131;28;20045;-81
2022/12/01 09:03:46;;;;;;;72.75;25.10;;;;;;;;;;5057764;28;20052;-83
2022/12/01 09:06:15;;;;;;;75.93;25.83;;;;;;;;;;5071357;28;20057;-82
2022/12/01 09:08:45;;;;;;;76.53;24.67;;;;;;;;;;5052631;28;20513;-82
2022/12/01 09:11:18;;;;;;;72.90;25.92;;;;;;;;;;5057029;28;20468;-82
2022/12/01 09:13:47;;;;;;;73.50;26.90;;;;;;;;;;5059964;28;20492;-82
2022/12/01 09:16:21;;;;;;;73.10;24.60;;;;;;;;;;5067016;28;20053;-82
2022/12/01 09:18:49;;;;;;;81.53;27.08;;;;;;;;;;5058998;28;20049;-82
2022/12/01 09:21:19;;;;;;;77.45;24.95;;;;;;;;;;5053512;28;20096;-82
2022/12/01 09:23:49;;;;;;;63.53;25.00;;;;;;;;;;5064102;28;20046;-82
2022/12/01 09:26:20;;;;;;;80.32;25.55;;;;;;;;;;5071570;28;20062;-81
2022/12/01 09:28:55;;;;;;;78.45;27.98;;;;;;;;;;5058039;28;20088;-82
2022/12/01 09:31:25;;;;;;;74.57;26.67;;;;;;;;;;5054698;28;20936;-82
2022/12/01 09:34:04;;;;;;;72.00;26.73;;;;;;;;;;5059549;28;20037;-81
2022/12/01 09:36:36;;;;;;;66.57;26.20;;;;;;;;;;5058401;28;20072;-81
2022/12/01 09:39:18;;;;;;;67.40;25.63;;;;;;;;;;5051183;28;20052;-81
2022/12/01 09:41:52;;;;;;;70.65;25.23;;;;;;;;;;5055752;28;20058;-80
2022/12/01 09:44:23;;;;;;;64.47;25.80;;;;;;;;;;5058168;28;20046;-81
2022/12/01 09:47:00;;;;;;;77.47;27.63;;;;;;;;;;5056732;28;20450;-81
2022/12/01 09:49:41;;;;;;;70.90;27.20;;;;;;;;;;5056007;28;20058;-81
2022/12/01 09:52:25;;;;;;;77.20;28.23;;;;;;;;;;5057591;28;20512;-82
2022/12/01 09:55:05;;;;;;;79.75;27.88;;;;;;;;;;5056413;28;20052;-81
2022/12/01 09:57:37;;;;;;;;;;;;;;;;;;5055857;28;20045;-81
2022/12/01 10:00:21;;;;;;;70.18;26.60;;;;;;;;;;5055658;28;44459;-81
2022/12/01 10:03:08;;;;;;;72.95;28.33;;;;;;;;;;5052546;28;20053;-81
2022/12/01 10:05:58;;;;;;;73.75;27.55;;;;;;;;;;5072777;28;20241;-81
2022/12/01 10:09:07;;;;;;;67.88;26.55;;;;;;;;;;5070094;28;20106;-81
2022/12/01 10:11:47;;;;;;;65.35;25.70;;;;;;;;;;5059544;28;20053;-82
2022/12/01 10:14:20;;;;;;;64.45;25.55;;;;;;;;;;5056196;28;20156;-81
2022/12/01 10:16:55;;;;;;;66.95;25.55;;;;;;;;;;5058422;28;20073;-82
2022/12/01 10:19:49;;;;;;;66.93;26.23;;;;;;;;;;5057513;28;20073;-82
2022/12/01 10:22:26;;;;;;;64.50;27.05;;;;;;;;;;5072476;28;20100;-82
2022/12/01 10:24:58;;;;;;;71.03;25.77;;;;;;;;;;5056412;28;20087;-82
2022/12/01 10:27:37;;;;;;;64.35;25.60;;;;;;;;;;5055547;28;20057;-82
2022/12/01 10:30:08;;;;;;;67.68;25.50;;;;;;;;;;5049084;28;20085;-82
2022/12/01 10:32:38;;;;;;;66.03;26.70;;;;;;;;;;5058642;28;20519;-81
2022/12/01 10:35:08;;;;;;;70.05;25.92;;;;;;;;;;5063933;28;20053;-81
2022/12/01 10:37:43;;;;;;;62.42;25.13;;;;;;;;;;5056931;28;20080;-82
2022/12/01 10:40:17;;;;;;;65.03;25.52;;;;;;;;;;5055057;28;20107;-82
2022/12/01 10:42:54;;;;;;;63.40;26.23;;;;;;;;;;5054608;28;20106;-82
2022/12/01 10:45:23;;;;;;;65.30;25.45;;;;;;;;;;5057853;28;20059;-81
2022/12/01 10:48:26;;;;;;;57.38;24.10;;;;;;;;;;5055156;28;20061;-81
2022/12/01 10:50:54;;;;;;;56.17;24.55;;;;;;;;;;5057805;28;20054;-82
2022/12/01 10:53:28;;;;;;;58.93;23.60;;;;;;;;;;5053212;28;20056;-81
2022/12/01 10:56:09;;;;;;;62.65;26.27;;;;;;;;;;5061335;28;20056;-81
2022/12/01 10:58:46;;;;;;;54.75;23.60;;;;;;;;;;5052843;28;20077;-82
2022/12/01 11:01:18;;;;;;;60.65;24.60;;;;;;;;;;5053156;28;20105;-82
2022/12/01 11:03:49;;;;;;;64.47;25.48;;;;;;;;;;5054886;28;20196;-80
2022/12/01 11:06:24;;;;;;;52.35;24.50;;;;;;;;;;5056606;28;20057;-80
2022/12/01 11:08:58;;;;;;;56.22;24.63;;;;;;;;;;5049164;28;20063;-80
2022/12/01 11:11:30;;;;;;;58.28;24.35;;;;;;;;;;5055981;28;20059;-80
2022/12/01 11:14:00;;;;;;;57.92;25.52;;;;;;;;;;5047308;28;20041;-79
2022/12/01 11:16:39;;;;;;;60.47;25.95;;;;;;;;;;5058922;28;20057;-79
2022/12/01 11:19:27;;;;;;;59.35;24.45;;;;;;;;;;5071472;28;20901;-79
2022/12/01 11:21:58;;;;;;;56.65;23.30;;;;;;;;;;5049636;28;20141;-79
2022/12/01 11:24:30;;;;;;;55.25;24.67;;;;;;;;;;5048628;28;20061;-80
2022/12/01 11:27:01;;;;;;;54.67;24.58;;;;;;;;;;5052138;28;20041;-79
2022/12/01 11:29:31;;;;;;;57.05;24.45;;;;;;;;;;5058731;28;20080;-79
2022/12/01 11:31:59;;;;;;;53.47;24.48;;;;;;;;;;5050554;28;20038;-79
2022/12/01 11:34:30;;;;;;;56.65;23.30;;;;;;;;;;5051171;28;20496;-80
2022/12/01 11:37:02;;;;;;;55.65;24.38;;;;;;;;;;5051125;28;20049;-79
2022/12/01 11:39:38;;;;;;;53.20;22.98;;;;;;;;;;5049927;28;20041;-79
2022/12/01 11:42:14;;;;;;;54.45;23.25;;;;;;;;;;5058834;28;20076;-79
2022/12/01 11:44:52;;;;;;;54.08;24.10;;;;;;;;;;5057263;28;20045;-80
2022/12/01 11:47:23;;;;;;;49.22;23.38;;;;;;;;;;5054523;28;20049;-80
2022/12/01 11:50:24;;;;;;;51.00;22.15;;;;;;;;;;5060486;28;20053;-79
2022/12/01 11:53:00;;;;;;;57.20;23.40;;;;;;;;;;5047960;28;20058;-79
2022/12/01 11:55:29;;;;;;;54.67;22.67;;;;;;;;;;5055259;28;20045;-79
2022/12/01 11:58:02;;;;;;;45.53;22.00;;;;;;;;;;5057626;28;20105;-79
2022/12/01 12:00:37;;;;;;;50.92;23.00;;;;;;;;;;5050043;28;20126;-79
2022/12/01 12:03:05;;;;;;;54.38;22.30;;;;;;;;;;5073882;28;20043;-80
2022/12/01 12:05:54;;;;;;;47.58;21.42;;;;;;;;;;5053743;28;20049;-80
2022/12/01 12:08:50;;;;;;;46.17;20.00;;;;;;;;;;5052764;28;20053;-79
2022/12/01 12:11:18;;;;;;;47.90;20.52;;;;;;;;;;5051914;28;20099;-79
2022/12/01 12:14:23;;;;;;;;;;;;;;;;;;;;;
2022/12/01 12:17:19;;;;;;;50.35;20.63;;;;;;;;;;5053955;28;20054;-80
2022/12/01 12:19:56;;;;;;;48.58;20.33;;;;;;;;;;5050202;28;20060;-80
2022/12/01 12:22:53;;;;;;;41.72;19.75;;;;;;;;;;5054923;28;20058;-80
2022/12/01 12:25:45;;;;;;;42.40;20.52;;;;;;;;;;5070777;28;20080;-81
2022/12/01 12:28:30;;;;;;;39.55;18.63;;;;;;;;;;5057034;28;20053;-80
2022/12/01 12:31:04;;;;;;;48.50;20.10;;;;;;;;;;5050108;28;20053;-80
2022/12/01 12:33:37;;;;;;;40.15;19.50;;;;;;;;;;5051642;28;20046;-80
2022/12/01 12:36:11;;;;;;;36.67;17.63;;;;;;;;;;5074308;28;20862;-80
2022/12/01 12:38:48;;;;;;;46.10;19.27;;;;;;;;;;5056890;28;20072;-79
2022/12/01 12:41:21;;;;;;;46.65;20.88;;;;;;;;;;5054499;28;20069;-79
2022/12/01 12:43:48;;;;;;;40.35;19.13;;;;;;;;;;5070684;28;20064;-82
2022/12/01 12:46:28;;;;;;;39.35;19.30;;;;;;;;;;5055803;28;20045;-81
2022/12/01 12:49:01;;;;;;;45.67;20.42;;;;;;;;;;5053547;28;20053;-81
2022/12/01 12:51:48;;;;;;;41.17;19.55;;;;;;;;;;5063262;28;20120;-81
2022/12/01 12:54:18;;;;;;;45.05;20.98;;;;;;;;;;5051378;28;21137;-81
2022/12/01 12:56:51;;;;;;;44.55;21.45;;;;;;;;;;5056093;28;20867;-80
2022/12/01 12:59:31;;;;;;;41.67;20.52;;;;;;;;;;5056756;28;20050;-81
2022/12/01 13:02:05;;;;;;;43.25;19.75;;;;;;;;;;5055909;28;20132;-81
2022/12/01 13:04:48;;;;;;;42.17;19.73;;;;;;;;;;5053462;28;20194;-81
2022/12/01 13:07:15;;;;;;;48.47;21.40;;;;;;;;;;5054008;28;20126;-81
2022/12/01 13:09:48;;;;;;;44.83;20.25;;;;;;;;;;5060934;28;20508;-81
2022/12/01 13:12:30;;;;;;;43.53;20.23;;;;;;;;;;5052527;28;20060;-81
2022/12/01 13:15:05;;;;;;;44.08;20.17;;;;;;;;;;5054254;28;20038;-81
2022/12/01 13:17:38;;;;;;;40.13;20.48;;;;;;;;;;5052592;28;20093;-81
2022/12/01 13:20:05;;;;;;;45.55;20.05;;;;;;;;;;5054806;28;20053;-81
2022/12/01 13:22:34;;;;;;;42.25;19.70;;;;;;;;;;5055690;28;20108;-81
2022/12/01 13:25:07;;;;;;;41.40;18.90;;;;;;;;;;5061914;28;20127;-81
2022/12/01 13:27:35;;;;;;;;;;;;;;;;;;5048046;28;20035;-81
2022/12/01 13:30:02;;;;;;;42.90;19.45;;;;;;;;;;5052239;28;46320;-81
2022/12/01 13:32:33;;;;;;;37.72;18.27;;;;;;;;;;5052192;28;20238;-81
2022/12/01 13:35:01;;;;;;;39.35;20.05;;;;;;;;;;5059586;28;20051;-81
2022/12/01 13:37:33;;;;;;;39.88;20.25;;;;;;;;;;5053423;28;20100;-81
2022/12/01 13:40:21;;;;;;;39.45;19.23;;;;;;;;;;5048997;28;20061;-81
2022/12/01 13:43:06;;;;;;;43.55;19.95;;;;;;;;;;5048839;28;20081;-81
2022/12/01 13:45:39;;;;;;;41.60;19.60;;;;;;;;;;5046863;28;20049;-81
2022/12/01 13:48:25;;;;;;;45.40;19.90;;;;;;;;;;5053947;28;20049;-81
2022/12/01 13:50:59;;;;;;;39.55;20.35;;;;;;;;;;5056216;28;20053;-81
2022/12/01 13:53:29;;;;;;;43.83;20.02;;;;;;;;;;5053701;28;20049;-81
2022/12/01 13:56:02;;;;;;;41.58;20.90;;;;;;;;;;5049824;28;20057;-82
2022/12/01 13:58:33;;;;;;;36.60;18.95;;;;;;;;;;5055682;28;20049;-81
2022/12/01 14:01:21;;;;;;;41.80;19.38;;;;;;;;;;5056608;28;20056;-81
2022/12/01 14:04:02;;;;;;;43.92;19.70;;;;;;;;;;5051378;28;20063;-81
2022/12/01 14:06:45;;;;;;;43.28;20.15;;;;;;;;;;5060877;28;20089;-82
2022/12/01 14:09:31;;;;;;;40.42;19.48;;;;;;;;;;5051061;28;20080;-81
2022/12/01 14:12:00;;;;;;;42.22;19.48;;;;;;;;;;5053974;28;20057;-81
2022/12/01 14:14:37;;;;;;;41.65;19.30;;;;;;;;;;5051792;28;20049;-81
2022/12/01 14:17:04;;;;;;;41.88;19.40;;;;;;;;;;5045965;28;20050;-81
2022/12/01 14:19:51;;;;;;;43.30;19.10;;;;;;;;;;5050148;28;20111;-81
2022/12/01 14:22:32;;;;;;;40.17;19.25;;;;;;;;;;5050858;28;20053;-81
2022/12/01 14:25:00;;;;;;;36.67;18.65;;;;;;;;;;5060079;28;20055;-81
2022/12/01 14:27:36;;;;;;;42.92;19.98;;;;;;;;;;5055046;28;20119;-81
2022/12/01 14:30:26;;;;;;;48.58;19.30;;;;;;;;;;5049322;28;20107;-81
2022/12/01 14:33:13;;;;;;;38.83;18.85;;;;;;;;;;5044646;28;20105;-81
2022/12/01 14:35:41;;;;;;;39.17;18.63;;;;;;;;;;5041686;28;20053;-81
2022/12/01 14:38:09;;;;;;;40.10;18.83;;;;;;;;;;5043545;28;20068;-80
2022/12/01 14:40:40;;;;;;;47.10;20.75;;;;;;;;;;5058072;28;20189;-81
2022/12/01 14:46:10;;;;;;;37.88;18.63;;;;;;;;;;5050936;28;20053;-81
2022/12/01 14:48:40;;;;;;;39.78;18.83;;;;;;;;;;5047778;28;20168;-81
2022/12/01 14:51:11;;;;;;;38.65;17.85;;;;;;;;;;5051554;28;20053;-81
2022/12/01 14:53:41;;;;;;;44.50;19.98;;;;;;;;;;5047122;28;20048;-81
2022/12/01 14:56:17;;;;;;;44.58;19.55;;;;;;;;;;5053181;28;20099;-81
2022/12/01 14:58:58;;;;;;;41.33;19.25;;;;;;;;;;5053070;28;20056;-82
2022/12/01 15:01:34;;;;;;;40.80;20.05;;;;;;;;;;5063771;28;20050;-81
2022/12/01 15:04:03;;;;;;;39.47;19.02;;;;;;;;;;5054042;28;20053;-81